Terminal Aerodrome Forecast
Issued by NWS

Home | Current Version | Previous Version | Text Only | Print | Product List | Glossary On
Versions: 1 2 3 4 5 6 7 8 9 10 11 12 13 14 15
000
FTUS44 KHGX 201246 AAA
TAFCXO
TAF AMD
KCXO 201246Z 2013/2112 00000KT 6SM BR SCT008
      TEMPO 2013/2014 4SM BR BKN005
     FM201600 14007KT P6SM SCT030 SCT050
     FM210000 16004KT P6SM SCT090
     FM210300 15003KT 6SM BR SCT008
     FM210700 00000KT 2SM BR BKN008 OVC015
      TEMPO 2108/2112 1/2SM FG OVC003=

USA.gov is the U.S. government's official web portal to all federal, state and local government web resources and services.